sensor_id;sensor_type;location;lat;lon;timestamp;temperature;humidity
52615;DHT22;38508;53.158;6.614;2022-09-24T00:01:52;16.20;99.90
52615;DHT22;38508;53.158;6.614;2022-09-24T00:04:18;16.10;99.90
52615;DHT22;38508;53.158;6.614;2022-09-24T00:06:46;16.20;99.90
52615;DHT22;38508;53.158;6.614;2022-09-24T00:09:14;16.20;99.90
52615;DHT22;38508;53.158;6.614;2022-09-24T00:11:40;16.20;99.90
52615;DHT22;38508;53.158;6.614;2022-09-24T00:14:10;16.20;99.90
52615;DHT22;38508;53.158;6.614;2022-09-24T00:16:38;16.30;99.90
52615;DHT22;38508;53.158;6.614;2022-09-24T00:19:04;16.30;99.90
52615;DHT22;38508;53.158;6.614;2022-09-24T00:21:32;16.30;99.90
52615;DHT22;38508;53.158;6.614;2022-09-24T00:24:01;16.20;99.90
52615;DHT22;38508;53.158;6.614;2022-09-24T00:26:27;16.20;99.90
52615;DHT22;38508;53.158;6.614;2022-09-24T00:29:18;16.20;99.90
52615;DHT22;38508;53.158;6.614;2022-09-24T00:31:44;16.20;99.90
52615;DHT22;38508;53.158;6.614;2022-09-24T00:34:10;16.20;99.90
52615;DHT22;38508;53.158;6.614;2022-09-24T00:36:36;16.20;99.90
52615;DHT22;38508;53.158;6.614;2022-09-24T00:39:03;16.30;99.90
52615;DHT22;38508;53.158;6.614;2022-09-24T00:41:31;16.30;99.90
52615;DHT22;38508;53.158;6.614;2022-09-24T00:43:57;16.30;99.90
52615;DHT22;38508;53.158;6.614;2022-09-24T00:46:39;16.30;99.90
52615;DHT22;38508;53.158;6.614;2022-09-24T00:49:16;16.30;99.90
52615;DHT22;38508;53.158;6.614;2022-09-24T00:51:46;16.20;99.90
52615;DHT22;38508;53.158;6.614;2022-09-24T00:54:22;16.20;99.90
52615;DHT22;38508;53.158;6.614;2022-09-24T00:56:49;16.30;99.90
52615;DHT22;38508;53.158;6.614;2022-09-24T00:59:19;16.30;99.90
52615;DHT22;38508;53.158;6.614;2022-09-24T01:01:47;16.20;99.90
52615;DHT22;38508;53.158;6.614;2022-09-24T01:04:15;16.20;99.90
52615;DHT22;38508;53.158;6.614;2022-09-24T01:06:42;16.20;99.90
52615;DHT22;38508;53.158;6.614;2022-09-24T01:09:08;16.20;99.90
52615;DHT22;38508;53.158;6.614;2022-09-24T01:12:12;16.20;99.90
52615;DHT22;38508;53.158;6.614;2022-09-24T01:17:57;16.20;99.90
52615;DHT22;38508;53.158;6.614;2022-09-24T01:21:06;16.20;99.90
52615;DHT22;38508;53.158;6.614;2022-09-24T01:23:55;16.30;99.90
52615;DHT22;38508;53.158;6.614;2022-09-24T01:29:30;16.20;99.90
52615;DHT22;38508;53.158;6.614;2022-09-24T01:32:28;16.30;99.90
52615;DHT22;38508;53.158;6.614;2022-09-24T01:35:22;16.30;99.90
52615;DHT22;38508;53.158;6.614;2022-09-24T01:38:01;16.20;99.90
52615;DHT22;38508;53.158;6.614;2022-09-24T01:40:29;16.20;99.90
52615;DHT22;38508;53.158;6.614;2022-09-24T01:42:56;16.20;99.90
52615;DHT22;38508;53.158;6.614;2022-09-24T01:45:24;16.20;99.90
52615;DHT22;38508;53.158;6.614;2022-09-24T01:47:51;16.20;99.90
52615;DHT22;38508;53.158;6.614;2022-09-24T01:50:18;16.20;99.90
52615;DHT22;38508;53.158;6.614;2022-09-24T01:53:15;16.20;99.90
52615;DHT22;38508;53.158;6.614;2022-09-24T01:55:46;16.30;99.90
52615;DHT22;38508;53.158;6.614;2022-09-24T01:58:22;16.30;99.90
52615;DHT22;38508;53.158;6.614;2022-09-24T02:00:54;16.30;99.90
52615;DHT22;38508;53.158;6.614;2022-09-24T02:03:27;16.30;99.90
52615;DHT22;38508;53.158;6.614;2022-09-24T02:08:36;16.30;99.90
52615;DHT22;38508;53.158;6.614;2022-09-24T02:11:17;16.30;99.90
52615;DHT22;38508;53.158;6.614;2022-09-24T02:16:18;16.30;99.90
52615;DHT22;38508;53.158;6.614;2022-09-24T02:18:48;16.30;99.90
52615;DHT22;38508;53.158;6.614;2022-09-24T02:21:17;16.30;99.90
52615;DHT22;38508;53.158;6.614;2022-09-24T02:23:50;16.30;99.90
52615;DHT22;38508;53.158;6.614;2022-09-24T02:26:15;16.30;99.90
52615;DHT22;38508;53.158;6.614;2022-09-24T02:28:41;16.40;99.90
52615;DHT22;38508;53.158;6.614;2022-09-24T02:31:11;16.30;99.90
52615;DHT22;38508;53.158;6.614;2022-09-24T02:33:40;16.40;99.90
52615;DHT22;38508;53.158;6.614;2022-09-24T02:36:25;16.30;99.90
52615;DHT22;38508;53.158;6.614;2022-09-24T02:38:51;16.30;99.90
52615;DHT22;38508;53.158;6.614;2022-09-24T02:41:18;16.40;99.90
52615;DHT22;38508;53.158;6.614;2022-09-24T02:43:47;16.50;99.90
52615;DHT22;38508;53.158;6.614;2022-09-24T02:46:13;16.40;99.90
52615;DHT22;38508;53.158;6.614;2022-09-24T02:48:39;16.30;99.90
52615;DHT22;38508;53.158;6.614;2022-09-24T02:51:05;16.20;99.90
52615;DHT22;38508;53.158;6.614;2022-09-24T02:53:31;16.20;99.90
52615;DHT22;38508;53.158;6.614;2022-09-24T02:55:57;16.20;99.90
52615;DHT22;38508;53.158;6.614;2022-09-24T02:58:27;16.30;99.90
52615;DHT22;38508;53.158;6.614;2022-09-24T03:00:53;16.20;99.90
52615;DHT22;38508;53.158;6.614;2022-09-24T03:03:22;16.20;99.90
52615;DHT22;38508;53.158;6.614;2022-09-24T03:05:51;16.20;99.90
52615;DHT22;38508;53.158;6.614;2022-09-24T03:08:22;16.10;99.90
52615;DHT22;38508;53.158;6.614;2022-09-24T03:10:51;16.00;99.90
52615;DHT22;38508;53.158;6.614;2022-09-24T03:13:20;16.10;99.90
52615;DHT22;38508;53.158;6.614;2022-09-24T03:15:46;16.20;99.90
52615;DHT22;38508;53.158;6.614;2022-09-24T03:18:12;16.20;99.90
52615;DHT22;38508;53.158;6.614;2022-09-24T03:20:38;16.20;99.90
52615;DHT22;38508;53.158;6.614;2022-09-24T03:23:04;16.30;99.90
52615;DHT22;38508;53.158;6.614;2022-09-24T03:25:30;16.20;99.90
52615;DHT22;38508;53.158;6.614;2022-09-24T03:27:56;16.30;99.90
52615;DHT22;38508;53.158;6.614;2022-09-24T03:30:22;16.30;99.90
52615;DHT22;38508;53.158;6.614;2022-09-24T03:33:06;16.30;99.90
52615;DHT22;38508;53.158;6.614;2022-09-24T03:35:32;16.30;99.90
52615;DHT22;38508;53.158;6.614;2022-09-24T03:37:58;16.30;99.90
52615;DHT22;38508;53.158;6.614;2022-09-24T03:40:23;16.30;99.90
52615;DHT22;38508;53.158;6.614;2022-09-24T03:42:49;16.30;99.90
52615;DHT22;38508;53.158;6.614;2022-09-24T03:45:15;16.30;99.90
52615;DHT22;38508;53.158;6.614;2022-09-24T03:47:41;16.20;99.90
52615;DHT22;38508;53.158;6.614;2022-09-24T03:50:08;16.30;99.90
52615;DHT22;38508;53.158;6.614;2022-09-24T03:52:37;16.30;99.90
52615;DHT22;38508;53.158;6.614;2022-09-24T03:55:03;16.30;99.90
52615;DHT22;38508;53.158;6.614;2022-09-24T03:57:29;16.20;99.90
52615;DHT22;38508;53.158;6.614;2022-09-24T03:59:54;16.30;99.90
52615;DHT22;38508;53.158;6.614;2022-09-24T04:02:20;16.30;99.90
52615;DHT22;38508;53.158;6.614;2022-09-24T04:04:46;16.20;99.90
52615;DHT22;38508;53.158;6.614;2022-09-24T04:07:11;16.00;99.90
52615;DHT22;38508;53.158;6.614;2022-09-24T04:09:37;16.00;99.90
52615;DHT22;38508;53.158;6.614;2022-09-24T04:12:03;16.10;99.90
52615;DHT22;38508;53.158;6.614;2022-09-24T04:14:30;16.10;99.90
52615;DHT22;38508;53.158;6.614;2022-09-24T04:16:56;16.10;99.90
52615;DHT22;38508;53.158;6.614;2022-09-24T04:19:23;16.10;99.90
52615;DHT22;38508;53.158;6.614;2022-09-24T04:21:49;16.20;99.90
52615;DHT22;38508;53.158;6.614;2022-09-24T04:24:15;16.20;99.90
52615;DHT22;38508;53.158;6.614;2022-09-24T04:26:40;16.20;99.90
52615;DHT22;38508;53.158;6.614;2022-09-24T04:29:06;16.30;99.90
52615;DHT22;38508;53.158;6.614;2022-09-24T04:31:32;16.30;99.90
52615;DHT22;38508;53.158;6.614;2022-09-24T04:33:58;16.30;99.90
52615;DHT22;38508;53.158;6.614;2022-09-24T04:36:24;16.30;99.90
52615;DHT22;38508;53.158;6.614;2022-09-24T04:38:49;16.30;99.90
52615;DHT22;38508;53.158;6.614;2022-09-24T04:41:15;16.20;99.90
52615;DHT22;38508;53.158;6.614;2022-09-24T04:43:42;16.30;99.90
52615;DHT22;38508;53.158;6.614;2022-09-24T04:46:11;16.30;99.90
52615;DHT22;38508;53.158;6.614;2022-09-24T04:48:38;16.30;99.90
52615;DHT22;38508;53.158;6.614;2022-09-24T04:51:05;16.30;99.90
52615;DHT22;38508;53.158;6.614;2022-09-24T04:53:31;16.20;99.90
52615;DHT22;38508;53.158;6.614;2022-09-24T04:55:57;16.30;99.90
52615;DHT22;38508;53.158;6.614;2022-09-24T04:58:25;16.30;99.90
52615;DHT22;38508;53.158;6.614;2022-09-24T05:00:51;16.30;99.90
52615;DHT22;38508;53.158;6.614;2022-09-24T05:03:16;16.30;99.90
52615;DHT22;38508;53.158;6.614;2022-09-24T05:05:42;16.40;99.90
52615;DHT22;38508;53.158;6.614;2022-09-24T05:08:08;16.30;99.90
52615;DHT22;38508;53.158;6.614;2022-09-24T05:10:33;16.30;99.90
52615;DHT22;38508;53.158;6.614;2022-09-24T05:12:59;16.30;99.90
52615;DHT22;38508;53.158;6.614;2022-09-24T05:15:25;16.30;99.90
52615;DHT22;38508;53.158;6.614;2022-09-24T05:17:51;16.40;99.90
52615;DHT22;38508;53.158;6.614;2022-09-24T05:20:17;16.40;99.90
52615;DHT22;38508;53.158;6.614;2022-09-24T05:22:47;16.30;99.90
52615;DHT22;38508;53.158;6.614;2022-09-24T05:25:15;16.20;99.90
52615;DHT22;38508;53.158;6.614;2022-09-24T05:27:49;16.20;99.90
52615;DHT22;38508;53.158;6.614;2022-09-24T05:30:17;16.30;99.90
52615;DHT22;38508;53.158;6.614;2022-09-24T05:32:43;16.30;99.90
52615;DHT22;38508;53.158;6.614;2022-09-24T05:35:09;16.00;99.90
52615;DHT22;38508;53.158;6.614;2022-09-24T05:37:36;16.10;99.90
52615;DHT22;38508;53.158;6.614;2022-09-24T05:40:03;16.00;99.90
52615;DHT22;38508;53.158;6.614;2022-09-24T05:42:49;16.10;99.90
52615;DHT22;38508;53.158;6.614;2022-09-24T05:45:15;16.00;99.90
52615;DHT22;38508;53.158;6.614;2022-09-24T05:47:43;16.10;99.90
52615;DHT22;38508;53.158;6.614;2022-09-24T05:50:10;16.10;99.90
52615;DHT22;38508;53.158;6.614;2022-09-24T05:52:35;16.10;99.90
52615;DHT22;38508;53.158;6.614;2022-09-24T05:55:02;16.10;99.90
52615;DHT22;38508;53.158;6.614;2022-09-24T05:57:28;16.00;99.90
52615;DHT22;38508;53.158;6.614;2022-09-24T05:59:54;16.00;99.90
52615;DHT22;38508;53.158;6.614;2022-09-24T06:02:19;15.90;99.90
52615;DHT22;38508;53.158;6.614;2022-09-24T06:04:45;15.90;99.90
52615;DHT22;38508;53.158;6.614;2022-09-24T06:07:10;16.00;99.90
52615;DHT22;38508;53.158;6.614;2022-09-24T06:09:36;15.80;99.90
52615;DHT22;38508;53.158;6.614;2022-09-24T06:12:02;15.90;99.90
52615;DHT22;38508;53.158;6.614;2022-09-24T06:14:27;15.90;99.90
52615;DHT22;38508;53.158;6.614;2022-09-24T06:16:53;15.90;99.90
52615;DHT22;38508;53.158;6.614;2022-09-24T06:19:19;16.00;99.90
52615;DHT22;38508;53.158;6.614;2022-09-24T06:21:44;15.90;99.90
52615;DHT22;38508;53.158;6.614;2022-09-24T06:24:10;15.80;99.90
52615;DHT22;38508;53.158;6.614;2022-09-24T06:26:36;15.80;99.90
52615;DHT22;38508;53.158;6.614;2022-09-24T06:29:02;15.80;99.90
52615;DHT22;38508;53.158;6.614;2022-09-24T06:31:28;15.90;99.90
52615;DHT22;38508;53.158;6.614;2022-09-24T06:33:53;15.90;99.90
52615;DHT22;38508;53.158;6.614;2022-09-24T06:36:19;16.00;99.90
52615;DHT22;38508;53.158;6.614;2022-09-24T06:38:49;16.00;99.90
52615;DHT22;38508;53.158;6.614;2022-09-24T06:41:15;16.00;99.90
52615;DHT22;38508;53.158;6.614;2022-09-24T06:43:40;16.00;99.90
52615;DHT22;38508;53.158;6.614;2022-09-24T06:46:06;16.00;99.90
52615;DHT22;38508;53.158;6.614;2022-09-24T06:48:32;16.00;99.90
52615;DHT22;38508;53.158;6.614;2022-09-24T06:50:58;15.90;99.90
52615;DHT22;38508;53.158;6.614;2022-09-24T06:53:24;15.90;99.90
52615;DHT22;38508;53.158;6.614;2022-09-24T06:55:50;15.90;99.90
52615;DHT22;38508;53.158;6.614;2022-09-24T06:58:18;15.70;99.90
52615;DHT22;38508;53.158;6.614;2022-09-24T07:00:59;15.70;99.90
52615;DHT22;38508;53.158;6.614;2022-09-24T07:03:30;15.80;99.90
52615;DHT22;38508;53.158;6.614;2022-09-24T07:05:59;15.80;99.90
52615;DHT22;38508;53.158;6.614;2022-09-24T07:08:25;15.80;99.90
52615;DHT22;38508;53.158;6.614;2022-09-24T07:10:51;15.90;99.90
52615;DHT22;38508;53.158;6.614;2022-09-24T07:13:19;15.90;99.90
52615;DHT22;38508;53.158;6.614;2022-09-24T07:15:49;15.80;99.90
52615;DHT22;38508;53.158;6.614;2022-09-24T07:18:16;15.90;99.90
52615;DHT22;38508;53.158;6.614;2022-09-24T07:20:42;15.70;99.90
52615;DHT22;38508;53.158;6.614;2022-09-24T07:23:09;15.90;99.90
52615;DHT22;38508;53.158;6.614;2022-09-24T07:25:36;15.90;99.90
52615;DHT22;38508;53.158;6.614;2022-09-24T07:28:04;15.90;99.90
52615;DHT22;38508;53.158;6.614;2022-09-24T07:30:31;15.80;99.90
52615;DHT22;38508;53.158;6.614;2022-09-24T07:32:57;15.70;99.90
52615;DHT22;38508;53.158;6.614;2022-09-24T07:35:24;15.60;99.90
52615;DHT22;38508;53.158;6.614;2022-09-24T07:38:00;15.70;99.90
52615;DHT22;38508;53.158;6.614;2022-09-24T07:40:27;15.60;99.90
52615;DHT22;38508;53.158;6.614;2022-09-24T07:42:53;15.50;99.90
52615;DHT22;38508;53.158;6.614;2022-09-24T07:45:20;15.60;99.90
52615;DHT22;38508;53.158;6.614;2022-09-24T07:47:46;15.40;99.90
52615;DHT22;38508;53.158;6.614;2022-09-24T07:50:11;15.40;99.90
52615;DHT22;38508;53.158;6.614;2022-09-24T07:52:38;15.30;99.90
52615;DHT22;38508;53.158;6.614;2022-09-24T07:55:04;15.40;99.90
52615;DHT22;38508;53.158;6.614;2022-09-24T07:57:30;15.40;99.90
52615;DHT22;38508;53.158;6.614;2022-09-24T07:59:56;15.40;99.90
52615;DHT22;38508;53.158;6.614;2022-09-24T08:02:22;15.40;99.90
52615;DHT22;38508;53.158;6.614;2022-09-24T08:04:49;15.40;99.90
52615;DHT22;38508;53.158;6.614;2022-09-24T08:07:15;15.30;99.90
52615;DHT22;38508;53.158;6.614;2022-09-24T08:09:41;15.40;99.90
52615;DHT22;38508;53.158;6.614;2022-09-24T08:12:07;15.40;99.90
52615;DHT22;38508;53.158;6.614;2022-09-24T08:14:33;15.10;99.90
52615;DHT22;38508;53.158;6.614;2022-09-24T08:16:58;15.10;99.90
52615;DHT22;38508;53.158;6.614;2022-09-24T08:19:25;15.20;99.90
52615;DHT22;38508;53.158;6.614;2022-09-24T08:21:52;15.20;99.90
52615;DHT22;38508;53.158;6.614;2022-09-24T08:24:18;15.30;99.90
52615;DHT22;38508;53.158;6.614;2022-09-24T08:26:44;15.40;99.90
52615;DHT22;38508;53.158;6.614;2022-09-24T08:29:09;15.60;99.90
52615;DHT22;38508;53.158;6.614;2022-09-24T08:31:35;15.70;99.90
52615;DHT22;38508;53.158;6.614;2022-09-24T08:34:01;15.60;99.90
52615;DHT22;38508;53.158;6.614;2022-09-24T08:36:27;15.60;99.90
52615;DHT22;38508;53.158;6.614;2022-09-24T08:38:54;15.50;99.90
52615;DHT22;38508;53.158;6.614;2022-09-24T08:41:23;15.60;99.90
52615;DHT22;38508;53.158;6.614;2022-09-24T08:44:21;15.70;99.90
52615;DHT22;38508;53.158;6.614;2022-09-24T08:47:15;15.60;99.90
52615;DHT22;38508;53.158;6.614;2022-09-24T08:49:53;15.70;99.90
52615;DHT22;38508;53.158;6.614;2022-09-24T08:55:36;15.70;99.90
52615;DHT22;38508;53.158;6.614;2022-09-24T08:58:27;15.80;99.90
52615;DHT22;38508;53.158;6.614;2022-09-24T09:07:18;15.60;99.90
52615;DHT22;38508;53.158;6.614;2022-09-24T09:12:24;15.70;99.90
52615;DHT22;38508;53.158;6.614;2022-09-24T09:14:59;15.90;99.90
52615;DHT22;38508;53.158;6.614;2022-09-24T09:20:02;15.70;99.90
52615;DHT22;38508;53.158;6.614;2022-09-24T09:22:35;15.80;99.90
52615;DHT22;38508;53.158;6.614;2022-09-24T09:25:23;15.70;99.90
52615;DHT22;38508;53.158;6.614;2022-09-24T09:27:59;15.70;99.90
52615;DHT22;38508;53.158;6.614;2022-09-24T09:30:25;15.70;99.90
52615;DHT22;38508;53.158;6.614;2022-09-24T09:38:21;15.70;99.90
52615;DHT22;38508;53.158;6.614;2022-09-24T09:41:02;15.80;99.90
52615;DHT22;38508;53.158;6.614;2022-09-24T09:43:30;15.80;99.90
52615;DHT22;38508;53.158;6.614;2022-09-24T09:46:17;15.70;99.90
52615;DHT22;38508;53.158;6.614;2022-09-24T09:48:58;15.80;99.90
52615;DHT22;38508;53.158;6.614;2022-09-24T09:51:30;15.80;99.90
52615;DHT22;38508;53.158;6.614;2022-09-24T09:54:00;15.60;99.90
52615;DHT22;38508;53.158;6.614;2022-09-24T09:56:51;15.60;99.90
52615;DHT22;38508;53.158;6.614;2022-09-24T09:59:30;15.80;99.90
52615;DHT22;38508;53.158;6.614;2022-09-24T10:01:58;15.80;99.90
52615;DHT22;38508;53.158;6.614;2022-09-24T10:07:10;15.70;99.90
52615;DHT22;38508;53.158;6.614;2022-09-24T10:09:37;15.50;99.90
52615;DHT22;38508;53.158;6.614;2022-09-24T10:12:17;15.60;99.90
52615;DHT22;38508;53.158;6.614;2022-09-24T10:14:59;15.60;99.90
52615;DHT22;38508;53.158;6.614;2022-09-24T10:17:35;15.60;99.90
52615;DHT22;38508;53.158;6.614;2022-09-24T10:22:52;15.50;99.90
52615;DHT22;38508;53.158;6.614;2022-09-24T10:25:27;15.60;99.90
52615;DHT22;38508;53.158;6.614;2022-09-24T10:27:56;15.40;99.90
52615;DHT22;38508;53.158;6.614;2022-09-24T10:30:57;15.50;99.90
52615;DHT22;38508;53.158;6.614;2022-09-24T10:33:26;15.80;99.90
52615;DHT22;38508;53.158;6.614;2022-09-24T10:36:06;15.70;99.90
52615;DHT22;38508;53.158;6.614;2022-09-24T10:38:33;15.90;99.90
52615;DHT22;38508;53.158;6.614;2022-09-24T10:40:58;15.90;99.90
52615;DHT22;38508;53.158;6.614;2022-09-24T10:43:25;16.00;99.90
52615;DHT22;38508;53.158;6.614;2022-09-24T10:57:48;16.10;99.90
52615;DHT22;38508;53.158;6.614;2022-09-24T11:00:22;16.10;99.90
52615;DHT22;38508;53.158;6.614;2022-09-24T11:05:40;15.90;99.90
52615;DHT22;38508;53.158;6.614;2022-09-24T11:08:19;16.00;99.90
52615;DHT22;38508;53.158;6.614;2022-09-24T11:17:04;16.20;99.90
52615;DHT22;38508;53.158;6.614;2022-09-24T11:50:10;15.80;99.90
52615;DHT22;38508;53.158;6.614;2022-09-24T11:52:43;16.00;99.90
52615;DHT22;38508;53.158;6.614;2022-09-24T11:55:14;16.00;99.90
52615;DHT22;38508;53.158;6.614;2022-09-24T11:57:51;16.10;99.90
52615;DHT22;38508;53.158;6.614;2022-09-24T12:00:20;16.10;99.90
52615;DHT22;38508;53.158;6.614;2022-09-24T12:03:31;16.20;99.90
52615;DHT22;38508;53.158;6.614;2022-09-24T12:06:04;16.30;99.90
52615;DHT22;38508;53.158;6.614;2022-09-24T12:08:38;16.30;99.90
52615;DHT22;38508;53.158;6.614;2022-09-24T12:11:14;16.10;99.90
52615;DHT22;38508;53.158;6.614;2022-09-24T12:13:49;16.00;99.90
52615;DHT22;38508;53.158;6.614;2022-09-24T12:16:21;15.90;99.90
52615;DHT22;38508;53.158;6.614;2022-09-24T12:19:00;16.00;99.90
52615;DHT22;38508;53.158;6.614;2022-09-24T12:21:37;16.10;99.90
52615;DHT22;38508;53.158;6.614;2022-09-24T12:24:29;15.90;99.90
52615;DHT22;38508;53.158;6.614;2022-09-24T12:26:58;15.80;99.90
52615;DHT22;38508;53.158;6.614;2022-09-24T12:29:43;15.90;99.90
52615;DHT22;38508;53.158;6.614;2022-09-24T12:35:45;16.00;99.90
52615;DHT22;38508;53.158;6.614;2022-09-24T12:38:13;15.80;99.90
52615;DHT22;38508;53.158;6.614;2022-09-24T12:46:43;15.80;99.90
52615;DHT22;38508;53.158;6.614;2022-09-24T12:52:17;15.80;99.90
52615;DHT22;38508;53.158;6.614;2022-09-24T12:54:43;15.70;99.90
52615;DHT22;38508;53.158;6.614;2022-09-24T12:57:19;15.70;99.90
52615;DHT22;38508;53.158;6.614;2022-09-24T13:07:28;15.70;99.90
52615;DHT22;38508;53.158;6.614;2022-09-24T13:09:54;15.80;99.90
52615;DHT22;38508;53.158;6.614;2022-09-24T13:12:22;15.90;99.90
52615;DHT22;38508;53.158;6.614;2022-09-24T13:15:03;15.90;99.90
52615;DHT22;38508;53.158;6.614;2022-09-24T13:17:33;15.80;99.90
52615;DHT22;38508;53.158;6.614;2022-09-24T13:20:07;15.80;99.90
52615;DHT22;38508;53.158;6.614;2022-09-24T13:22:41;15.60;99.90
52615;DHT22;38508;53.158;6.614;2022-09-24T13:27:41;15.60;99.90
52615;DHT22;38508;53.158;6.614;2022-09-24T13:30:25;15.60;99.90
52615;DHT22;38508;53.158;6.614;2022-09-24T13:33:03;15.70;99.90
52615;DHT22;38508;53.158;6.614;2022-09-24T13:35:42;15.90;99.90
52615;DHT22;38508;53.158;6.614;2022-09-24T13:38:29;16.00;99.90
52615;DHT22;38508;53.158;6.614;2022-09-24T13:41:01;15.90;99.90
52615;DHT22;38508;53.158;6.614;2022-09-24T13:43:36;15.90;99.90
52615;DHT22;38508;53.158;6.614;2022-09-24T13:46:06;16.10;99.90
52615;DHT22;38508;53.158;6.614;2022-09-24T13:48:37;15.90;99.90
52615;DHT22;38508;53.158;6.614;2022-09-24T13:51:10;15.90;99.90
52615;DHT22;38508;53.158;6.614;2022-09-24T13:54:42;15.80;99.90
52615;DHT22;38508;53.158;6.614;2022-09-24T13:56:32;15.50;99.90
52615;DHT22;38508;53.158;6.614;2022-09-24T13:59:24;15.30;99.90
52615;DHT22;38508;53.158;6.614;2022-09-24T14:01:50;15.50;99.90
52615;DHT22;38508;53.158;6.614;2022-09-24T14:04:20;15.50;99.90
52615;DHT22;38508;53.158;6.614;2022-09-24T14:06:54;15.40;99.90
52615;DHT22;38508;53.158;6.614;2022-09-24T14:09:26;15.40;99.90
52615;DHT22;38508;53.158;6.614;2022-09-24T14:12:00;15.50;99.90
52615;DHT22;38508;53.158;6.614;2022-09-24T14:14:29;15.50;99.90
52615;DHT22;38508;53.158;6.614;2022-09-24T14:17:10;15.50;99.90
52615;DHT22;38508;53.158;6.614;2022-09-24T14:19:37;15.40;99.90
52615;DHT22;38508;53.158;6.614;2022-09-24T14:22:05;15.30;99.90
52615;DHT22;38508;53.158;6.614;2022-09-24T14:24:53;15.30;99.90
52615;DHT22;38508;53.158;6.614;2022-09-24T14:27:22;15.10;99.90
52615;DHT22;38508;53.158;6.614;2022-09-24T14:35:24;14.60;99.90
52615;DHT22;38508;53.158;6.614;2022-09-24T14:37:54;14.70;99.90
52615;DHT22;38508;53.158;6.614;2022-09-24T14:40:23;14.70;99.90
52615;DHT22;38508;53.158;6.614;2022-09-24T14:42:57;15.00;99.90
52615;DHT22;38508;53.158;6.614;2022-09-24T14:45:35;15.20;99.90
52615;DHT22;38508;53.158;6.614;2022-09-24T14:48:15;15.30;99.90
52615;DHT22;38508;53.158;6.614;2022-09-24T14:50:42;15.30;99.90
52615;DHT22;38508;53.158;6.614;2022-09-24T14:53:34;15.30;99.90
52615;DHT22;38508;53.158;6.614;2022-09-24T14:56:51;15.20;99.90
52615;DHT22;38508;53.158;6.614;2022-09-24T14:58:52;15.20;99.90
52615;DHT22;38508;53.158;6.614;2022-09-24T15:01:20;15.10;99.90
52615;DHT22;38508;53.158;6.614;2022-09-24T15:06:23;15.00;99.90
52615;DHT22;38508;53.158;6.614;2022-09-24T15:11:36;14.90;99.90
52615;DHT22;38508;53.158;6.614;2022-09-24T15:16:45;15.00;99.90
52615;DHT22;38508;53.158;6.614;2022-09-24T15:19:19;15.10;99.90
52615;DHT22;38508;53.158;6.614;2022-09-24T15:21:49;15.30;99.90
52615;DHT22;38508;53.158;6.614;2022-09-24T15:24:17;15.30;99.90
52615;DHT22;38508;53.158;6.614;2022-09-24T15:26:46;15.30;99.90
52615;DHT22;38508;53.158;6.614;2022-09-24T15:29:20;15.30;99.90
52615;DHT22;38508;53.158;6.614;2022-09-24T15:31:52;15.30;99.90
52615;DHT22;38508;53.158;6.614;2022-09-24T15:34:18;15.40;99.90
52615;DHT22;38508;53.158;6.614;2022-09-24T15:36:45;15.50;99.90
52615;DHT22;38508;53.158;6.614;2022-09-24T15:39:11;15.50;99.90
52615;DHT22;38508;53.158;6.614;2022-09-24T15:41:38;15.50;99.90
52615;DHT22;38508;53.158;6.614;2022-09-24T15:44:04;15.50;99.90
52615;DHT22;38508;53.158;6.614;2022-09-24T15:46:30;15.50;99.90
52615;DHT22;38508;53.158;6.614;2022-09-24T15:48:56;15.40;99.90
52615;DHT22;38508;53.158;6.614;2022-09-24T15:51:22;15.50;99.90
52615;DHT22;38508;53.158;6.614;2022-09-24T15:53:48;15.40;99.90
52615;DHT22;38508;53.158;6.614;2022-09-24T15:56:15;15.40;99.90
52615;DHT22;38508;53.158;6.614;2022-09-24T15:58:41;15.40;99.90
52615;DHT22;38508;53.158;6.614;2022-09-24T16:01:14;15.30;99.90
52615;DHT22;38508;53.158;6.614;2022-09-24T16:03:40;15.40;99.90
52615;DHT22;38508;53.158;6.614;2022-09-24T16:06:10;15.40;99.90
52615;DHT22;38508;53.158;6.614;2022-09-24T16:08:36;15.60;99.90
52615;DHT22;38508;53.158;6.614;2022-09-24T16:11:02;15.60;99.90
52615;DHT22;38508;53.158;6.614;2022-09-24T16:13:30;15.70;99.90
52615;DHT22;38508;53.158;6.614;2022-09-24T16:15:56;15.80;99.90
52615;DHT22;38508;53.158;6.614;2022-09-24T16:18:21;15.90;99.90
52615;DHT22;38508;53.158;6.614;2022-09-24T16:20:50;15.90;99.90
52615;DHT22;38508;53.158;6.614;2022-09-24T16:23:17;15.90;99.90
52615;DHT22;38508;53.158;6.614;2022-09-24T16:25:56;15.90;99.90
52615;DHT22;38508;53.158;6.614;2022-09-24T16:28:22;15.90;99.90
52615;DHT22;38508;53.158;6.614;2022-09-24T16:30:48;16.00;99.90
52615;DHT22;38508;53.158;6.614;2022-09-24T16:33:14;16.10;99.90
52615;DHT22;38508;53.158;6.614;2022-09-24T16:35:40;16.10;99.90
52615;DHT22;38508;53.158;6.614;2022-09-24T16:38:05;16.10;99.90
52615;DHT22;38508;53.158;6.614;2022-09-24T16:40:31;15.90;99.90
52615;DHT22;38508;53.158;6.614;2022-09-24T16:42:57;15.90;99.90
52615;DHT22;38508;53.158;6.614;2022-09-24T16:45:23;16.00;99.90
52615;DHT22;38508;53.158;6.614;2022-09-24T16:47:48;16.00;99.90
52615;DHT22;38508;53.158;6.614;2022-09-24T16:50:14;16.00;99.90
52615;DHT22;38508;53.158;6.614;2022-09-24T16:52:40;16.00;99.90
52615;DHT22;38508;53.158;6.614;2022-09-24T16:55:09;16.10;99.90
52615;DHT22;38508;53.158;6.614;2022-09-24T16:57:38;16.20;99.90
52615;DHT22;38508;53.158;6.614;2022-09-24T17:00:05;16.20;99.90
52615;DHT22;38508;53.158;6.614;2022-09-24T17:02:33;16.30;99.90
52615;DHT22;38508;53.158;6.614;2022-09-24T17:04:59;16.30;99.90
52615;DHT22;38508;53.158;6.614;2022-09-24T17:07:25;16.30;99.90
52615;DHT22;38508;53.158;6.614;2022-09-24T17:09:50;16.30;99.90
52615;DHT22;38508;53.158;6.614;2022-09-24T17:12:34;16.40;99.90
52615;DHT22;38508;53.158;6.614;2022-09-24T17:15:00;16.40;99.90
52615;DHT22;38508;53.158;6.614;2022-09-24T17:17:28;16.40;99.90
52615;DHT22;38508;53.158;6.614;2022-09-24T17:19:54;16.30;99.90
52615;DHT22;38508;53.158;6.614;2022-09-24T17:22:20;16.20;99.90
52615;DHT22;38508;53.158;6.614;2022-09-24T17:24:46;16.10;99.90
52615;DHT22;38508;53.158;6.614;2022-09-24T17:27:13;16.00;99.90
52615;DHT22;38508;53.158;6.614;2022-09-24T17:29:39;16.00;99.90
52615;DHT22;38508;53.158;6.614;2022-09-24T17:32:04;15.90;99.90
52615;DHT22;38508;53.158;6.614;2022-09-24T17:34:30;15.70;99.90
52615;DHT22;38508;53.158;6.614;2022-09-24T17:36:56;15.70;99.90
52615;DHT22;38508;53.158;6.614;2022-09-24T17:39:22;15.40;99.90
52615;DHT22;38508;53.158;6.614;2022-09-24T17:41:48;15.30;99.90
52615;DHT22;38508;53.158;6.614;2022-09-24T17:44:14;15.30;99.90
52615;DHT22;38508;53.158;6.614;2022-09-24T17:46:41;15.30;99.90
52615;DHT22;38508;53.158;6.614;2022-09-24T17:49:08;15.20;99.90
52615;DHT22;38508;53.158;6.614;2022-09-24T17:51:34;15.30;99.90
52615;DHT22;38508;53.158;6.614;2022-09-24T17:54:10;15.30;99.90